sensor_id;sensor_type;location;lat;lon;timestamp;pressure;altitude;pressure_sealevel;temperature;humidity
3796;BME280;1913;50.660;7.834;2022-08-26T00:00:27;97081.16;;;18.45;100.00
3796;BME280;1913;50.660;7.834;2022-08-26T00:02:53;97086.28;;;18.51;100.00
3796;BME280;1913;50.660;7.834;2022-08-26T00:05:18;97080.66;;;18.48;100.00
3796;BME280;1913;50.660;7.834;2022-08-26T00:07:44;97083.31;;;18.48;100.00
3796;BME280;1913;50.660;7.834;2022-08-26T00:10:10;97078.03;;;18.53;100.00
3796;BME280;1913;50.660;7.834;2022-08-26T00:12:37;97078.00;;;18.48;100.00
3796;BME280;1913;50.660;7.834;2022-08-26T00:15:05;97078.28;;;18.51;100.00
3796;BME280;1913;50.660;7.834;2022-08-26T00:17:31;97073.78;;;18.52;100.00
3796;BME280;1913;50.660;7.834;2022-08-26T00:19:56;97077.00;;;18.54;100.00
3796;BME280;1913;50.660;7.834;2022-08-26T00:22:22;97070.56;;;18.50;100.00
3796;BME280;1913;50.660;7.834;2022-08-26T00:24:47;97077.22;;;18.52;100.00
3796;BME280;1913;50.660;7.834;2022-08-26T00:27:12;97081.44;;;18.43;100.00
3796;BME280;1913;50.660;7.834;2022-08-26T00:29:38;97078.47;;;18.39;100.00
3796;BME280;1913;50.660;7.834;2022-08-26T00:32:04;97079.50;;;18.33;100.00
3796;BME280;1913;50.660;7.834;2022-08-26T00:34:31;97083.94;;;18.23;100.00
3796;BME280;1913;50.660;7.834;2022-08-26T00:36:56;97078.94;;;17.99;100.00
3796;BME280;1913;50.660;7.834;2022-08-26T00:39:22;97080.34;;;17.80;100.00
3796;BME280;1913;50.660;7.834;2022-08-26T00:41:47;97076.81;;;17.74;100.00
3796;BME280;1913;50.660;7.834;2022-08-26T00:44:12;97077.59;;;17.75;100.00
3796;BME280;1913;50.660;7.834;2022-08-26T00:46:42;97084.25;;;17.72;100.00
3796;BME280;1913;50.660;7.834;2022-08-26T00:49:23;97082.31;;;17.67;100.00
3796;BME280;1913;50.660;7.834;2022-08-26T00:51:53;97081.47;;;17.62;100.00
3796;BME280;1913;50.660;7.834;2022-08-26T00:54:22;97080.88;;;17.55;100.00
3796;BME280;1913;50.660;7.834;2022-08-26T00:56:56;97082.97;;;17.53;100.00
3796;BME280;1913;50.660;7.834;2022-08-26T00:59:23;97084.69;;;17.42;100.00
3796;BME280;1913;50.660;7.834;2022-08-26T01:01:49;97089.56;;;17.28;100.00
3796;BME280;1913;50.660;7.834;2022-08-26T01:04:18;97087.97;;;17.27;100.00
3796;BME280;1913;50.660;7.834;2022-08-26T01:06:45;97086.38;;;17.26;100.00
3796;BME280;1913;50.660;7.834;2022-08-26T01:09:12;97088.47;;;17.24;100.00
3796;BME280;1913;50.660;7.834;2022-08-26T01:11:37;97082.41;;;17.29;100.00
3796;BME280;1913;50.660;7.834;2022-08-26T01:14:05;97081.59;;;17.28;100.00
3796;BME280;1913;50.660;7.834;2022-08-26T01:16:31;97080.78;;;17.50;100.00
3796;BME280;1913;50.660;7.834;2022-08-26T01:19:13;97072.13;;;17.59;100.00
3796;BME280;1913;50.660;7.834;2022-08-26T01:21:44;97072.94;;;17.60;100.00
3796;BME280;1913;50.660;7.834;2022-08-26T01:24:12;97072.69;;;17.61;100.00
3796;BME280;1913;50.660;7.834;2022-08-26T01:26:40;97071.38;;;17.64;100.00
3796;BME280;1913;50.660;7.834;2022-08-26T01:29:12;97074.53;;;17.61;100.00
3796;BME280;1913;50.660;7.834;2022-08-26T01:31:42;97073.94;;;17.54;100.00
3796;BME280;1913;50.660;7.834;2022-08-26T01:34:20;97078.41;;;17.48;100.00
3796;BME280;1913;50.660;7.834;2022-08-26T01:36:48;97070.63;;;17.41;100.00
3796;BME280;1913;50.660;7.834;2022-08-26T01:39:16;97080.38;;;17.36;100.00
3796;BME280;1913;50.660;7.834;2022-08-26T01:41:42;97076.41;;;17.38;100.00
3796;BME280;1913;50.660;7.834;2022-08-26T01:44:11;97080.28;;;17.26;100.00
3796;BME280;1913;50.660;7.834;2022-08-26T01:46:38;97100.03;;;16.74;100.00
3796;BME280;1913;50.660;7.834;2022-08-26T01:49:06;97106.44;;;16.78;100.00
3796;BME280;1913;50.660;7.834;2022-08-26T01:51:33;97106.84;;;16.70;100.00
3796;BME280;1913;50.660;7.834;2022-08-26T01:54:02;97110.22;;;16.65;100.00
3796;BME280;1913;50.660;7.834;2022-08-26T01:56:28;97117.53;;;16.58;100.00
3796;BME280;1913;50.660;7.834;2022-08-26T01:58:57;97118.88;;;16.61;100.00
3796;BME280;1913;50.660;7.834;2022-08-26T02:01:25;97119.31;;;16.52;100.00
3796;BME280;1913;50.660;7.834;2022-08-26T02:04:00;97124.59;;;16.52;100.00
3796;BME280;1913;50.660;7.834;2022-08-26T02:06:27;97126.13;;;16.48;100.00
3796;BME280;1913;50.660;7.834;2022-08-26T02:08:55;97128.47;;;16.45;100.00
3796;BME280;1913;50.660;7.834;2022-08-26T02:11:23;97128.78;;;16.48;100.00
3796;BME280;1913;50.660;7.834;2022-08-26T02:14:02;97131.75;;;16.52;100.00
3796;BME280;1913;50.660;7.834;2022-08-26T02:16:32;97130.88;;;16.46;100.00
3796;BME280;1913;50.660;7.834;2022-08-26T02:18:59;97132.81;;;16.34;100.00
3796;BME280;1913;50.660;7.834;2022-08-26T02:21:26;97137.69;;;16.25;100.00
3796;BME280;1913;50.660;7.834;2022-08-26T02:23:52;97138.72;;;16.24;100.00
3796;BME280;1913;50.660;7.834;2022-08-26T02:26:21;97140.41;;;16.14;100.00
3796;BME280;1913;50.660;7.834;2022-08-26T02:29:00;97139.44;;;16.03;100.00
3796;BME280;1913;50.660;7.834;2022-08-26T02:31:26;97137.25;;;16.00;100.00
3796;BME280;1913;50.660;7.834;2022-08-26T02:33:52;97142.94;;;15.92;100.00
3796;BME280;1913;50.660;7.834;2022-08-26T02:36:24;97139.88;;;15.83;100.00
3796;BME280;1913;50.660;7.834;2022-08-26T02:38:50;97149.22;;;15.74;100.00
3796;BME280;1913;50.660;7.834;2022-08-26T02:41:15;97142.00;;;15.69;100.00
3796;BME280;1913;50.660;7.834;2022-08-26T02:43:42;97139.56;;;15.68;100.00
3796;BME280;1913;50.660;7.834;2022-08-26T02:46:07;97140.38;;;15.56;100.00
3796;BME280;1913;50.660;7.834;2022-08-26T02:48:33;97144.41;;;15.59;100.00
3796;BME280;1913;50.660;7.834;2022-08-26T02:50:59;97142.22;;;15.56;100.00
3796;BME280;1913;50.660;7.834;2022-08-26T02:53:26;97143.75;;;15.52;100.00
3796;BME280;1913;50.660;7.834;2022-08-26T02:55:52;97138.25;;;15.42;100.00
3796;BME280;1913;50.660;7.834;2022-08-26T02:58:17;97140.78;;;15.37;100.00
3796;BME280;1913;50.660;7.834;2022-08-26T03:00:42;97141.47;;;15.32;100.00
3796;BME280;1913;50.660;7.834;2022-08-26T03:03:08;97145.88;;;15.26;100.00
3796;BME280;1913;50.660;7.834;2022-08-26T03:05:34;97142.31;;;15.21;100.00
3796;BME280;1913;50.660;7.834;2022-08-26T03:08:00;97141.38;;;15.15;100.00
3796;BME280;1913;50.660;7.834;2022-08-26T03:10:27;97140.59;;;15.15;100.00
3796;BME280;1913;50.660;7.834;2022-08-26T03:12:52;97143.84;;;15.05;100.00
3796;BME280;1913;50.660;7.834;2022-08-26T03:15:18;97137.25;;;15.07;100.00
3796;BME280;1913;50.660;7.834;2022-08-26T03:17:46;97137.16;;;15.02;100.00
3796;BME280;1913;50.660;7.834;2022-08-26T03:20:11;97139.00;;;15.02;100.00
3796;BME280;1913;50.660;7.834;2022-08-26T03:22:37;97147.75;;;15.02;100.00
3796;BME280;1913;50.660;7.834;2022-08-26T03:25:06;97134.25;;;15.04;100.00
3796;BME280;1913;50.660;7.834;2022-08-26T03:27:33;97138.66;;;14.98;100.00
3796;BME280;1913;50.660;7.834;2022-08-26T03:29:59;97134.88;;;14.94;100.00
3796;BME280;1913;50.660;7.834;2022-08-26T03:32:43;97147.75;;;14.91;100.00
3796;BME280;1913;50.660;7.834;2022-08-26T03:35:09;97141.41;;;14.92;100.00
3796;BME280;1913;50.660;7.834;2022-08-26T03:37:35;97141.88;;;14.89;100.00
3796;BME280;1913;50.660;7.834;2022-08-26T03:40:00;97140.84;;;14.90;100.00
3796;BME280;1913;50.660;7.834;2022-08-26T03:42:26;97139.69;;;14.85;100.00
3796;BME280;1913;50.660;7.834;2022-08-26T03:44:51;97134.50;;;14.79;100.00
3796;BME280;1913;50.660;7.834;2022-08-26T03:47:17;97137.16;;;14.79;100.00
3796;BME280;1913;50.660;7.834;2022-08-26T03:49:42;97132.81;;;14.73;100.00
3796;BME280;1913;50.660;7.834;2022-08-26T03:52:08;97137.25;;;14.72;100.00
3796;BME280;1913;50.660;7.834;2022-08-26T03:54:34;97141.88;;;14.65;100.00
3796;BME280;1913;50.660;7.834;2022-08-26T03:57:00;97138.31;;;14.59;100.00
3796;BME280;1913;50.660;7.834;2022-08-26T03:59:25;97143.00;;;14.57;100.00
3796;BME280;1913;50.660;7.834;2022-08-26T04:01:51;97139.56;;;14.57;100.00
3796;BME280;1913;50.660;7.834;2022-08-26T04:04:16;97142.31;;;14.50;100.00
3796;BME280;1913;50.660;7.834;2022-08-26T04:06:42;97136.66;;;14.47;100.00
3796;BME280;1913;50.660;7.834;2022-08-26T04:09:13;97142.38;;;14.44;100.00
3796;BME280;1913;50.660;7.834;2022-08-26T04:11:41;97144.13;;;14.38;100.00
3796;BME280;1913;50.660;7.834;2022-08-26T04:14:10;97139.75;;;14.44;100.00
3796;BME280;1913;50.660;7.834;2022-08-26T04:16:39;97142.72;;;14.35;100.00
3796;BME280;1913;50.660;7.834;2022-08-26T04:19:06;97139.50;;;14.33;100.00
3796;BME280;1913;50.660;7.834;2022-08-26T04:21:32;97138.84;;;14.38;100.00
3796;BME280;1913;50.660;7.834;2022-08-26T04:23:57;97138.47;;;14.34;100.00
3796;BME280;1913;50.660;7.834;2022-08-26T04:26:23;97141.91;;;14.35;100.00
3796;BME280;1913;50.660;7.834;2022-08-26T04:28:51;97135.69;;;14.29;100.00
3796;BME280;1913;50.660;7.834;2022-08-26T04:31:17;97143.28;;;14.26;100.00
3796;BME280;1913;50.660;7.834;2022-08-26T04:33:44;97142.97;;;14.34;100.00
3796;BME280;1913;50.660;7.834;2022-08-26T04:36:11;97142.47;;;14.37;100.00
3796;BME280;1913;50.660;7.834;2022-08-26T04:38:37;97142.03;;;14.40;100.00
3796;BME280;1913;50.660;7.834;2022-08-26T04:41:03;97142.19;;;14.45;100.00
3796;BME280;1913;50.660;7.834;2022-08-26T04:43:31;97136.81;;;14.52;100.00
3796;BME280;1913;50.660;7.834;2022-08-26T04:46:00;97139.75;;;14.44;100.00
3796;BME280;1913;50.660;7.834;2022-08-26T04:48:28;97143.44;;;14.43;100.00
3796;BME280;1913;50.660;7.834;2022-08-26T04:50:54;97146.06;;;14.43;100.00
3796;BME280;1913;50.660;7.834;2022-08-26T04:53:20;97143.88;;;14.40;100.00
3796;BME280;1913;50.660;7.834;2022-08-26T04:55:45;97143.78;;;14.46;100.00
3796;BME280;1913;50.660;7.834;2022-08-26T04:58:14;97150.50;;;14.60;100.00
3796;BME280;1913;50.660;7.834;2022-08-26T05:00:42;97153.63;;;14.69;100.00
3796;BME280;1913;50.660;7.834;2022-08-26T05:03:08;97155.34;;;14.87;100.00
3796;BME280;1913;50.660;7.834;2022-08-26T05:05:36;97160.50;;;14.94;100.00
3796;BME280;1913;50.660;7.834;2022-08-26T05:08:02;97161.88;;;15.20;100.00
3796;BME280;1913;50.660;7.834;2022-08-26T05:10:27;97158.16;;;15.32;100.00
3796;BME280;1913;50.660;7.834;2022-08-26T05:12:53;97160.56;;;15.46;100.00
3796;BME280;1913;50.660;7.834;2022-08-26T05:15:18;97166.63;;;15.70;100.00
3796;BME280;1913;50.660;7.834;2022-08-26T05:17:44;97170.56;;;15.96;100.00
3796;BME280;1913;50.660;7.834;2022-08-26T05:20:09;97166.84;;;16.25;100.00
3796;BME280;1913;50.660;7.834;2022-08-26T05:22:35;97172.59;;;16.51;100.00
3796;BME280;1913;50.660;7.834;2022-08-26T05:25:00;97160.69;;;16.70;100.00
3796;BME280;1913;50.660;7.834;2022-08-26T05:27:25;97153.63;;;16.93;100.00
3796;BME280;1913;50.660;7.834;2022-08-26T05:29:55;97157.06;;;17.10;100.00
3796;BME280;1913;50.660;7.834;2022-08-26T05:32:21;97158.41;;;17.30;100.00
3796;BME280;1913;50.660;7.834;2022-08-26T05:34:46;97155.97;;;17.50;100.00
3796;BME280;1913;50.660;7.834;2022-08-26T05:37:12;97159.31;;;17.62;100.00
3796;BME280;1913;50.660;7.834;2022-08-26T05:39:37;97157.03;;;17.71;100.00
3796;BME280;1913;50.660;7.834;2022-08-26T05:42:03;97167.13;;;17.91;100.00
3796;BME280;1913;50.660;7.834;2022-08-26T05:44:29;97162.56;;;17.86;100.00
3796;BME280;1913;50.660;7.834;2022-08-26T05:46:55;97166.47;;;18.06;100.00
3796;BME280;1913;50.660;7.834;2022-08-26T05:49:20;97171.28;;;18.09;100.00
3796;BME280;1913;50.660;7.834;2022-08-26T05:51:46;97159.47;;;18.22;100.00
3796;BME280;1913;50.660;7.834;2022-08-26T05:54:13;97166.69;;;18.26;100.00
3796;BME280;1913;50.660;7.834;2022-08-26T05:56:38;97179.81;;;18.38;100.00
3796;BME280;1913;50.660;7.834;2022-08-26T05:59:04;97177.25;;;18.48;100.00
3796;BME280;1913;50.660;7.834;2022-08-26T06:01:30;97180.47;;;18.50;100.00
3796;BME280;1913;50.660;7.834;2022-08-26T06:04:00;97173.63;;;18.59;100.00
3796;BME280;1913;50.660;7.834;2022-08-26T06:06:32;97179.69;;;18.55;100.00
3796;BME280;1913;50.660;7.834;2022-08-26T06:08:59;97179.69;;;18.55;100.00
3796;BME280;1913;50.660;7.834;2022-08-26T06:11:26;97182.97;;;18.62;100.00
3796;BME280;1913;50.660;7.834;2022-08-26T06:13:56;97182.28;;;18.72;100.00
3796;BME280;1913;50.660;7.834;2022-08-26T06:16:24;97184.97;;;18.77;100.00
3796;BME280;1913;50.660;7.834;2022-08-26T06:18:51;97183.59;;;18.74;100.00
3796;BME280;1913;50.660;7.834;2022-08-26T06:23:56;97184.03;;;18.93;100.00
3796;BME280;1913;50.660;7.834;2022-08-26T06:26:45;97189.13;;;19.00;100.00
3796;BME280;1913;50.660;7.834;2022-08-26T06:29:11;97192.03;;;18.93;100.00
3796;BME280;1913;50.660;7.834;2022-08-26T06:31:36;97186.22;;;19.01;100.00
3796;BME280;1913;50.660;7.834;2022-08-26T06:34:03;97188.88;;;19.01;100.00
3796;BME280;1913;50.660;7.834;2022-08-26T06:36:29;97194.56;;;19.15;100.00
3796;BME280;1913;50.660;7.834;2022-08-26T06:38:59;97192.38;;;19.07;100.00
3796;BME280;1913;50.660;7.834;2022-08-26T06:41:25;97192.19;;;19.19;100.00
3796;BME280;1913;50.660;7.834;2022-08-26T06:43:50;97199.41;;;19.23;100.00
3796;BME280;1913;50.660;7.834;2022-08-26T06:46:20;97199.44;;;19.28;100.00
3796;BME280;1913;50.660;7.834;2022-08-26T06:48:45;97197.38;;;19.46;100.00
3796;BME280;1913;50.660;7.834;2022-08-26T06:51:14;97199.75;;;19.42;100.00
3796;BME280;1913;50.660;7.834;2022-08-26T06:53:41;97188.25;;;19.31;100.00
3796;BME280;1913;50.660;7.834;2022-08-26T06:56:10;97193.84;;;19.35;100.00
3796;BME280;1913;50.660;7.834;2022-08-26T06:58:37;97199.25;;;19.45;100.00
3796;BME280;1913;50.660;7.834;2022-08-26T07:01:25;97199.56;;;19.54;100.00
3796;BME280;1913;50.660;7.834;2022-08-26T07:03:53;97194.19;;;19.49;100.00
3796;BME280;1913;50.660;7.834;2022-08-26T07:06:20;97192.19;;;19.66;100.00
3796;BME280;1913;50.660;7.834;2022-08-26T07:08:47;97198.06;;;19.68;100.00
3796;BME280;1913;50.660;7.834;2022-08-26T07:11:13;97194.09;;;19.81;100.00
3796;BME280;1913;50.660;7.834;2022-08-26T07:13:39;97196.25;;;19.84;100.00
3796;BME280;1913;50.660;7.834;2022-08-26T07:16:09;97194.09;;;19.81;100.00
3796;BME280;1913;50.660;7.834;2022-08-26T07:18:37;97195.78;;;20.07;100.00
3796;BME280;1913;50.660;7.834;2022-08-26T07:21:06;97197.31;;;19.83;100.00
3796;BME280;1913;50.660;7.834;2022-08-26T07:23:32;97200.34;;;20.07;100.00
3796;BME280;1913;50.660;7.834;2022-08-26T07:25:58;97202.47;;;20.10;100.00
3796;BME280;1913;50.660;7.834;2022-08-26T07:28:27;97194.22;;;20.27;100.00
3796;BME280;1913;50.660;7.834;2022-08-26T07:30:53;97196.38;;;20.25;100.00
3796;BME280;1913;50.660;7.834;2022-08-26T07:33:18;97193.72;;;20.25;100.00
3796;BME280;1913;50.660;7.834;2022-08-26T07:35:44;97203.81;;;20.23;100.00
3796;BME280;1913;50.660;7.834;2022-08-26T07:38:12;97202.75;;;20.24;100.00
3796;BME280;1913;50.660;7.834;2022-08-26T07:40:41;97209.97;;;20.23;100.00
3796;BME280;1913;50.660;7.834;2022-08-26T07:43:08;97212.41;;;20.45;100.00
3796;BME280;1913;50.660;7.834;2022-08-26T07:45:33;97206.53;;;20.48;100.00
3796;BME280;1913;50.660;7.834;2022-08-26T07:47:59;97208.47;;;20.53;100.00
3796;BME280;1913;50.660;7.834;2022-08-26T07:50:24;97212.41;;;20.40;100.00
3796;BME280;1913;50.660;7.834;2022-08-26T07:52:50;97210.28;;;20.42;100.00
3796;BME280;1913;50.660;7.834;2022-08-26T07:55:15;97207.06;;;20.40;100.00
3796;BME280;1913;50.660;7.834;2022-08-26T07:57:42;97214.03;;;20.46;100.00
3796;BME280;1913;50.660;7.834;2022-08-26T08:00:11;97202.56;;;20.66;100.00
3796;BME280;1913;50.660;7.834;2022-08-26T08:02:37;97219.94;;;20.84;100.00
3796;BME280;1913;50.660;7.834;2022-08-26T08:05:02;97211.94;;;20.89;100.00
3796;BME280;1913;50.660;7.834;2022-08-26T08:07:28;97212.44;;;21.01;100.00
3796;BME280;1913;50.660;7.834;2022-08-26T08:09:53;97216.19;;;21.11;100.00
3796;BME280;1913;50.660;7.834;2022-08-26T08:12:19;97212.94;;;21.29;100.00
3796;BME280;1913;50.660;7.834;2022-08-26T08:14:45;97217.25;;;21.35;100.00
3796;BME280;1913;50.660;7.834;2022-08-26T08:17:13;97206.81;;;21.28;100.00
3796;BME280;1913;50.660;7.834;2022-08-26T08:19:39;97212.09;;;21.64;100.00
3796;BME280;1913;50.660;7.834;2022-08-26T08:22:05;97215.78;;;21.79;100.00
3796;BME280;1913;50.660;7.834;2022-08-26T08:24:31;97213.06;;;21.89;100.00
3796;BME280;1913;50.660;7.834;2022-08-26T08:27:00;97206.56;;;22.05;100.00
3796;BME280;1913;50.660;7.834;2022-08-26T08:29:26;97209.19;;;22.20;100.00
3796;BME280;1913;50.660;7.834;2022-08-26T08:31:54;97215.78;;;22.33;100.00
3796;BME280;1913;50.660;7.834;2022-08-26T08:34:20;97213.66;;;22.35;100.00
3796;BME280;1913;50.660;7.834;2022-08-26T08:36:46;97210.81;;;22.61;100.00
3796;BME280;1913;50.660;7.834;2022-08-26T08:39:12;97212.16;;;22.58;100.00
3796;BME280;1913;50.660;7.834;2022-08-26T08:44:18;97213.13;;;23.07;100.00
3796;BME280;1913;50.660;7.834;2022-08-26T08:46:48;97207.34;;;23.24;100.00
3796;BME280;1913;50.660;7.834;2022-08-26T08:49:15;97212.03;;;23.37;100.00
3796;BME280;1913;50.660;7.834;2022-08-26T08:51:53;97207.44;;;23.13;100.00
3796;BME280;1913;50.660;7.834;2022-08-26T08:54:22;97202.59;;;23.45;100.00
3796;BME280;1913;50.660;7.834;2022-08-26T08:56:52;97210.47;;;23.84;100.00
3796;BME280;1913;50.660;7.834;2022-08-26T08:59:27;97209.00;;;24.34;100.00
3796;BME280;1913;50.660;7.834;2022-08-26T09:02:06;97209.13;;;24.05;100.00
3796;BME280;1913;50.660;7.834;2022-08-26T09:07:07;97209.22;;;24.57;100.00
3796;BME280;1913;50.660;7.834;2022-08-26T09:09:40;97203.50;;;24.45;100.00
3796;BME280;1913;50.660;7.834;2022-08-26T09:12:22;97207.56;;;24.61;100.00
3796;BME280;1913;50.660;7.834;2022-08-26T09:14:49;97210.56;;;24.92;100.00
3796;BME280;1913;50.660;7.834;2022-08-26T09:20:17;97209.06;;;25.19;100.00
3796;BME280;1913;50.660;7.834;2022-08-26T09:22:45;97207.09;;;25.38;100.00
3796;BME280;1913;50.660;7.834;2022-08-26T09:25:12;97208.78;;;25.75;100.00
3796;BME280;1913;50.660;7.834;2022-08-26T09:27:44;97204.19;;;25.35;100.00
3796;BME280;1913;50.660;7.834;2022-08-26T09:30:20;97208.19;;;25.37;100.00
3796;BME280;1913;50.660;7.834;2022-08-26T09:32:59;97212.97;;;25.54;100.00
3796;BME280;1913;50.660;7.834;2022-08-26T09:35:27;97204.63;;;25.69;100.00
3796;BME280;1913;50.660;7.834;2022-08-26T09:37:55;97203.19;;;26.13;100.00
3796;BME280;1913;50.660;7.834;2022-08-26T09:43:05;97203.00;;;27.36;100.00
3796;BME280;1913;50.660;7.834;2022-08-26T09:45:32;97195.66;;;27.28;100.00
3796;BME280;1913;50.660;7.834;2022-08-26T09:47:57;97194.59;;;27.37;100.00
3796;BME280;1913;50.660;7.834;2022-08-26T09:50:36;97195.59;;;27.99;100.00
3796;BME280;1913;50.660;7.834;2022-08-26T09:55:27;97193.09;;;28.89;90.77
3796;BME280;1913;50.660;7.834;2022-08-26T09:57:53;97191.09;;;29.33;88.67
3796;BME280;1913;50.660;7.834;2022-08-26T10:00:37;97190.16;;;29.29;86.99
3796;BME280;1913;50.660;7.834;2022-08-26T10:03:06;97190.09;;;28.56;91.58
3796;BME280;1913;50.660;7.834;2022-08-26T10:05:58;97189.38;;;29.20;87.74
3796;BME280;1913;50.660;7.834;2022-08-26T10:08:32;97180.31;;;30.22;80.23
3796;BME280;1913;50.660;7.834;2022-08-26T10:11:02;97183.97;;;30.59;77.76
3796;BME280;1913;50.660;7.834;2022-08-26T10:18:53;97168.25;;;30.11;74.61
3796;BME280;1913;50.660;7.834;2022-08-26T10:21:29;97166.16;;;30.91;69.04
3796;BME280;1913;50.660;7.834;2022-08-26T10:23:58;97167.19;;;29.73;77.74
3796;BME280;1913;50.660;7.834;2022-08-26T10:26:57;97154.84;;;30.14;74.95
3796;BME280;1913;50.660;7.834;2022-08-26T10:29:31;97150.38;;;30.72;70.37
3796;BME280;1913;50.660;7.834;2022-08-26T10:32:04;97153.19;;;30.43;72.42
3796;BME280;1913;50.660;7.834;2022-08-26T10:34:34;97153.47;;;30.83;68.80
3796;BME280;1913;50.660;7.834;2022-08-26T10:37:10;97158.66;;;30.76;69.49
3796;BME280;1913;50.660;7.834;2022-08-26T10:42:47;97147.31;;;31.19;64.44
3796;BME280;1913;50.660;7.834;2022-08-26T10:45:08;97147.38;;;31.44;64.19
3796;BME280;1913;50.660;7.834;2022-08-26T10:48:00;97143.41;;;31.54;63.15
3796;BME280;1913;50.660;7.834;2022-08-26T10:50:45;97143.75;;;32.29;57.73
3796;BME280;1913;50.660;7.834;2022-08-26T10:53:45;97139.00;;;31.61;60.74
3796;BME280;1913;50.660;7.834;2022-08-26T10:56:33;97142.94;;;31.52;63.69
3796;BME280;1913;50.660;7.834;2022-08-26T11:01:48;97131.44;;;32.19;56.59
3796;BME280;1913;50.660;7.834;2022-08-26T11:15:02;97132.09;;;32.85;50.35
3796;BME280;1913;50.660;7.834;2022-08-26T11:20:43;97126.25;;;32.14;54.61
3796;BME280;1913;50.660;7.834;2022-08-26T11:28:48;97133.28;;;33.00;48.88
3796;BME280;1913;50.660;7.834;2022-08-26T11:33:54;97131.03;;;32.74;49.96
3796;BME280;1913;50.660;7.834;2022-08-26T11:39:29;97121.84;;;32.10;53.61
3796;BME280;1913;50.660;7.834;2022-08-26T11:42:08;97122.81;;;31.65;55.46
3796;BME280;1913;50.660;7.834;2022-08-26T11:44:41;97118.53;;;31.39;59.41
3796;BME280;1913;50.660;7.834;2022-08-26T11:47:09;97124.88;;;31.56;58.73
3796;BME280;1913;50.660;7.834;2022-08-26T11:49:37;97120.09;;;31.77;55.89
3796;BME280;1913;50.660;7.834;2022-08-26T11:54:38;97115.34;;;31.37;57.43
3796;BME280;1913;50.660;7.834;2022-08-26T11:57:06;97122.53;;;31.09;59.52
3796;BME280;1913;50.660;7.834;2022-08-26T11:59:36;97118.94;;;31.05;59.63
3796;BME280;1913;50.660;7.834;2022-08-26T12:02:04;97113.88;;;31.40;58.51
3796;BME280;1913;50.660;7.834;2022-08-26T12:04:37;97115.09;;;31.30;59.26
3796;BME280;1913;50.660;7.834;2022-08-26T12:07:05;97112.59;;;30.34;65.74
3796;BME280;1913;50.660;7.834;2022-08-26T12:09:36;97109.50;;;29.81;68.45
3796;BME280;1913;50.660;7.834;2022-08-26T12:14:35;97105.97;;;29.22;75.88
3796;BME280;1913;50.660;7.834;2022-08-26T12:17:13;97110.50;;;30.40;68.33
3796;BME280;1913;50.660;7.834;2022-08-26T12:19:39;97112.59;;;31.13;61.96
3796;BME280;1913;50.660;7.834;2022-08-26T12:22:19;97110.13;;;30.95;61.93
3796;BME280;1913;50.660;7.834;2022-08-26T12:25:07;97100.16;;;31.12;61.79
3796;BME280;1913;50.660;7.834;2022-08-26T12:27:37;97108.75;;;31.26;60.63
3796;BME280;1913;50.660;7.834;2022-08-26T12:30:22;97110.19;;;30.53;63.30
3796;BME280;1913;50.660;7.834;2022-08-26T12:33:02;97105.81;;;30.07;66.56
3796;BME280;1913;50.660;7.834;2022-08-26T12:35:28;97108.53;;;30.28;67.95
3796;BME280;1913;50.660;7.834;2022-08-26T12:37:54;97107.50;;;29.91;70.97
3796;BME280;1913;50.660;7.834;2022-08-26T12:42:49;97103.63;;;30.42;70.02
3796;BME280;1913;50.660;7.834;2022-08-26T12:45:32;97109.38;;;30.74;64.26
3796;BME280;1913;50.660;7.834;2022-08-26T12:48:01;97105.59;;;30.33;66.18
3796;BME280;1913;50.660;7.834;2022-08-26T12:50:32;97108.63;;;30.52;64.52
3796;BME280;1913;50.660;7.834;2022-08-26T13:08:39;97108.06;;;28.00;86.07
3796;BME280;1913;50.660;7.834;2022-08-26T13:12:10;97105.84;;;28.02;87.47
3796;BME280;1913;50.660;7.834;2022-08-26T13:14:13;97102.19;;;28.06;86.16
3796;BME280;1913;50.660;7.834;2022-08-26T13:16:39;97112.38;;;28.18;84.02
3796;BME280;1913;50.660;7.834;2022-08-26T13:19:11;97111.91;;;28.07;84.59
3796;BME280;1913;50.660;7.834;2022-08-26T13:21:42;97108.06;;;28.00;84.86
3796;BME280;1913;50.660;7.834;2022-08-26T13:24:19;97106.72;;;27.62;88.16
3796;BME280;1913;50.660;7.834;2022-08-26T13:26:46;97104.59;;;27.02;93.40
3796;BME280;1913;50.660;7.834;2022-08-26T13:29:19;97098.84;;;26.64;96.49
3796;BME280;1913;50.660;7.834;2022-08-26T13:31:45;97109.69;;;26.72;97.33
3796;BME280;1913;50.660;7.834;2022-08-26T13:34:14;97104.06;;;26.91;95.53
3796;BME280;1913;50.660;7.834;2022-08-26T13:36:42;97102.31;;;26.56;94.53
3796;BME280;1913;50.660;7.834;2022-08-26T13:39:10;97100.16;;;27.06;92.11
3796;BME280;1913;50.660;7.834;2022-08-26T13:41:35;97102.06;;;27.37;92.10
3796;BME280;1913;50.660;7.834;2022-08-26T13:44:01;97090.38;;;26.48;96.58
3796;BME280;1913;50.660;7.834;2022-08-26T13:46:27;97100.75;;;26.94;95.04
3796;BME280;1913;50.660;7.834;2022-08-26T13:48:53;97087.78;;;27.36;90.88
3796;BME280;1913;50.660;7.834;2022-08-26T13:51:29;97093.03;;;27.02;92.12
3796;BME280;1913;50.660;7.834;2022-08-26T13:53:58;97098.28;;;27.55;88.84
3796;BME280;1913;50.660;7.834;2022-08-26T13:56:26;97100.59;;;28.05;84.37
3796;BME280;1913;50.660;7.834;2022-08-26T13:58:54;97106.75;;;28.67;80.12
3796;BME280;1913;50.660;7.834;2022-08-26T14:01:20;97090.25;;;28.33;81.59
3796;BME280;1913;50.660;7.834;2022-08-26T14:03:46;97088.69;;;28.06;83.14
3796;BME280;1913;50.660;7.834;2022-08-26T14:06:11;97098.22;;;27.86;85.46
3796;BME280;1913;50.660;7.834;2022-08-26T14:08:38;97081.78;;;27.57;86.70
3796;BME280;1913;50.660;7.834;2022-08-26T14:11:07;97080.53;;;27.54;86.82
3796;BME280;1913;50.660;7.834;2022-08-26T14:13:33;97068.69;;;27.15;89.51
3796;BME280;1913;50.660;7.834;2022-08-26T14:16:11;97073.97;;;27.38;89.35
3796;BME280;1913;50.660;7.834;2022-08-26T14:18:40;97072.72;;;27.44;89.92
3796;BME280;1913;50.660;7.834;2022-08-26T14:21:06;97081.56;;;27.27;91.11
3796;BME280;1913;50.660;7.834;2022-08-26T14:23:35;97073.63;;;26.91;92.56
3796;BME280;1913;50.660;7.834;2022-08-26T14:26:00;97083.28;;;27.23;91.47
3796;BME280;1913;50.660;7.834;2022-08-26T14:28:34;97080.78;;;27.35;89.70
3796;BME280;1913;50.660;7.834;2022-08-26T14:31:03;97084.53;;;27.17;91.80
3796;BME280;1913;50.660;7.834;2022-08-26T14:33:36;97074.75;;;27.38;90.16
3796;BME280;1913;50.660;7.834;2022-08-26T14:36:03;97084.31;;;27.53;88.67
3796;BME280;1913;50.660;7.834;2022-08-26T14:38:47;97083.53;;;27.53;88.40